Knowles, Oklahoma
Current Conditions -  °F | °C
As of 1:35 PM on Tuesday 21 Oct 2014 (Local Time) from KPYX Reporting Station
Broken Clouds Broken Clouds  
Wind Chill: 77°   Ceiling: 6000
Heat Index: 78°   Visibility: 10mi
Dew Point: 51°   Wind: 15mph
Humidity: 39%   Direction: 190°S
Pressure: 30.07"   Gusts: 18mph
Location:  36.87°N, 100.19°W
Report Text: KPYX 211835Z AUTO 19013G16KT 10SM BKN060 25/11 A3007 RMK AO2 T02520105
Loading
Personal Weather Stations






























Interactive Weather Map
Tropical Storm Tracking
New forecast layout! Learn more

10-Day Weather Forecast

Advertisements
Track Severe Weather on mobile